sensor_id;sensor_type;location;lat;lon;timestamp;temperature;humidity
21770;DHT22;11046;49.558;8.674;2023-02-28T00:02:48;-0.30;73.50
21770;DHT22;11046;49.558;8.674;2023-02-28T00:05:51;-0.20;73.50
21770;DHT22;11046;49.558;8.674;2023-02-28T00:08:57;-0.20;73.70
21770;DHT22;11046;49.558;8.674;2023-02-28T00:12:00;-0.20;73.60
21770;DHT22;11046;49.558;8.674;2023-02-28T00:15:20;-0.20;73.70
21770;DHT22;11046;49.558;8.674;2023-02-28T00:18:25;-0.20;73.80
21770;DHT22;11046;49.558;8.674;2023-02-28T00:21:29;-0.30;73.90
21770;DHT22;11046;49.558;8.674;2023-02-28T00:24:30;-0.30;74.20
21770;DHT22;11046;49.558;8.674;2023-02-28T00:27:31;-0.40;74.30
21770;DHT22;11046;49.558;8.674;2023-02-28T00:30:34;-0.40;74.30
21770;DHT22;11046;49.558;8.674;2023-02-28T00:33:44;-0.50;74.40
21770;DHT22;11046;49.558;8.674;2023-02-28T00:36:51;-0.50;74.50
21770;DHT22;11046;49.558;8.674;2023-02-28T00:39:53;-0.50;74.50
21770;DHT22;11046;49.558;8.674;2023-02-28T00:42:53;-0.60;74.60
21770;DHT22;11046;49.558;8.674;2023-02-28T00:45:54;-0.70;74.80
21770;DHT22;11046;49.558;8.674;2023-02-28T00:48:58;-0.70;74.90
21770;DHT22;11046;49.558;8.674;2023-02-28T00:52:02;-0.80;75.40
21770;DHT22;11046;49.558;8.674;2023-02-28T00:55:03;-0.70;75.30
21770;DHT22;11046;49.558;8.674;2023-02-28T00:58:08;-0.80;75.10
21770;DHT22;11046;49.558;8.674;2023-02-28T01:01:09;-0.80;75.30
21770;DHT22;11046;49.558;8.674;2023-02-28T01:04:14;-0.90;75.50
21770;DHT22;11046;49.558;8.674;2023-02-28T01:07:27;-1.00;75.60
21770;DHT22;11046;49.558;8.674;2023-02-28T01:10:30;-1.00;75.80
21770;DHT22;11046;49.558;8.674;2023-02-28T01:13:32;-1.00;75.90
21770;DHT22;11046;49.558;8.674;2023-02-28T01:16:32;-1.00;75.90
21770;DHT22;11046;49.558;8.674;2023-02-28T01:19:35;-1.00;75.90
21770;DHT22;11046;49.558;8.674;2023-02-28T01:22:37;-1.10;76.00
21770;DHT22;11046;49.558;8.674;2023-02-28T01:25:37;-1.10;76.20
21770;DHT22;11046;49.558;8.674;2023-02-28T01:28:41;-1.10;76.30
21770;DHT22;11046;49.558;8.674;2023-02-28T01:31:44;-1.10;76.40
21770;DHT22;11046;49.558;8.674;2023-02-28T01:34:45;-1.10;76.50
21770;DHT22;11046;49.558;8.674;2023-02-28T01:37:46;-1.10;76.50
21770;DHT22;11046;49.558;8.674;2023-02-28T01:40:47;-1.10;76.80
21770;DHT22;11046;49.558;8.674;2023-02-28T01:43:55;-1.10;77.10
21770;DHT22;11046;49.558;8.674;2023-02-28T01:46:58;-1.10;77.20
21770;DHT22;11046;49.558;8.674;2023-02-28T01:50:05;-1.10;77.30
21770;DHT22;11046;49.558;8.674;2023-02-28T01:53:18;-1.10;77.40
21770;DHT22;11046;49.558;8.674;2023-02-28T01:56:25;-1.10;77.40
21770;DHT22;11046;49.558;8.674;2023-02-28T01:59:38;-1.10;77.60
21770;DHT22;11046;49.558;8.674;2023-02-28T02:02:51;-1.10;77.80
21770;DHT22;11046;49.558;8.674;2023-02-28T02:05:53;-1.10;77.90
21770;DHT22;11046;49.558;8.674;2023-02-28T02:08:57;-1.10;77.80
21770;DHT22;11046;49.558;8.674;2023-02-28T02:12:02;-1.10;78.00
21770;DHT22;11046;49.558;8.674;2023-02-28T02:18:47;-1.20;78.40
21770;DHT22;11046;49.558;8.674;2023-02-28T02:22:21;-1.20;78.40
21770;DHT22;11046;49.558;8.674;2023-02-28T02:25:56;-1.20;78.70
21770;DHT22;11046;49.558;8.674;2023-02-28T02:33:26;-1.20;78.70
21770;DHT22;11046;49.558;8.674;2023-02-28T02:39:57;-1.20;78.20
21770;DHT22;11046;49.558;8.674;2023-02-28T02:43:16;-1.20;78.50
21770;DHT22;11046;49.558;8.674;2023-02-28T02:49:35;-1.30;79.70
21770;DHT22;11046;49.558;8.674;2023-02-28T02:52:44;-1.20;78.90
21770;DHT22;11046;49.558;8.674;2023-02-28T02:55:49;-1.30;78.90
21770;DHT22;11046;49.558;8.674;2023-02-28T02:58:57;-1.30;78.80
21770;DHT22;11046;49.558;8.674;2023-02-28T03:02:11;-1.40;78.80
21770;DHT22;11046;49.558;8.674;2023-02-28T03:08:41;-1.50;79.30
21770;DHT22;11046;49.558;8.674;2023-02-28T03:11:45;-1.60;79.30
21770;DHT22;11046;49.558;8.674;2023-02-28T03:18:08;-1.70;79.60
21770;DHT22;11046;49.558;8.674;2023-02-28T03:24:50;-1.70;79.80
21770;DHT22;11046;49.558;8.674;2023-02-28T03:28:04;-1.70;79.80
21770;DHT22;11046;49.558;8.674;2023-02-28T03:34:33;-1.80;79.90
21770;DHT22;11046;49.558;8.674;2023-02-28T03:37:40;-1.80;79.80
21770;DHT22;11046;49.558;8.674;2023-02-28T03:40:47;-1.80;79.80
21770;DHT22;11046;49.558;8.674;2023-02-28T03:44:03;-1.80;80.00
21770;DHT22;11046;49.558;8.674;2023-02-28T03:47:10;-1.80;80.10
21770;DHT22;11046;49.558;8.674;2023-02-28T03:50:18;-1.80;80.00
21770;DHT22;11046;49.558;8.674;2023-02-28T03:53:39;-1.90;80.10
21770;DHT22;11046;49.558;8.674;2023-02-28T03:56:55;-1.80;80.30
21770;DHT22;11046;49.558;8.674;2023-02-28T04:00:04;-1.90;80.30
21770;DHT22;11046;49.558;8.674;2023-02-28T04:03:22;-1.90;80.50
21770;DHT22;11046;49.558;8.674;2023-02-28T04:06:24;-2.00;80.80
21770;DHT22;11046;49.558;8.674;2023-02-28T04:09:25;-2.00;80.90
21770;DHT22;11046;49.558;8.674;2023-02-28T04:12:39;-2.00;81.90
21770;DHT22;11046;49.558;8.674;2023-02-28T04:15:40;-2.10;81.20
21770;DHT22;11046;49.558;8.674;2023-02-28T04:18:44;-2.10;81.40
21770;DHT22;11046;49.558;8.674;2023-02-28T04:21:53;-2.00;81.60
21770;DHT22;11046;49.558;8.674;2023-02-28T04:24:56;-2.10;81.40
21770;DHT22;11046;49.558;8.674;2023-02-28T04:27:56;-2.10;81.40
21770;DHT22;11046;49.558;8.674;2023-02-28T04:31:03;-2.00;81.40
21770;DHT22;11046;49.558;8.674;2023-02-28T04:34:04;-2.10;81.40
21770;DHT22;11046;49.558;8.674;2023-02-28T04:37:06;-2.10;81.60
21770;DHT22;11046;49.558;8.674;2023-02-28T04:40:07;-2.10;81.80
21770;DHT22;11046;49.558;8.674;2023-02-28T04:43:11;-2.00;81.90
21770;DHT22;11046;49.558;8.674;2023-02-28T04:46:12;-2.10;82.00
21770;DHT22;11046;49.558;8.674;2023-02-28T04:49:15;-2.10;82.20
21770;DHT22;11046;49.558;8.674;2023-02-28T04:52:16;-2.10;82.20
21770;DHT22;11046;49.558;8.674;2023-02-28T04:55:19;-2.10;82.30
21770;DHT22;11046;49.558;8.674;2023-02-28T04:58:23;-2.10;82.30
21770;DHT22;11046;49.558;8.674;2023-02-28T05:01:33;-2.10;82.50
21770;DHT22;11046;49.558;8.674;2023-02-28T05:04:40;-2.10;82.50
21770;DHT22;11046;49.558;8.674;2023-02-28T05:07:41;-2.10;82.40
21770;DHT22;11046;49.558;8.674;2023-02-28T05:10:44;-2.00;82.50
21770;DHT22;11046;49.558;8.674;2023-02-28T05:13:48;-2.00;82.60
21770;DHT22;11046;49.558;8.674;2023-02-28T05:16:51;-1.90;82.80
21770;DHT22;11046;49.558;8.674;2023-02-28T05:20:03;-1.90;82.60
21770;DHT22;11046;49.558;8.674;2023-02-28T05:23:10;-1.80;82.60
21770;DHT22;11046;49.558;8.674;2023-02-28T05:26:13;-1.80;82.60
21770;DHT22;11046;49.558;8.674;2023-02-28T05:29:14;-1.80;82.70
21770;DHT22;11046;49.558;8.674;2023-02-28T05:32:15;-1.80;82.70
21770;DHT22;11046;49.558;8.674;2023-02-28T05:35:21;-1.70;82.90
21770;DHT22;11046;49.558;8.674;2023-02-28T05:38:22;-1.80;82.90
21770;DHT22;11046;49.558;8.674;2023-02-28T05:41:33;-1.80;83.00
21770;DHT22;11046;49.558;8.674;2023-02-28T05:44:36;-1.80;83.30
21770;DHT22;11046;49.558;8.674;2023-02-28T05:47:37;-1.80;83.40
21770;DHT22;11046;49.558;8.674;2023-02-28T05:50:37;-1.70;83.30
21770;DHT22;11046;49.558;8.674;2023-02-28T05:53:38;-1.70;83.30
21770;DHT22;11046;49.558;8.674;2023-02-28T05:56:51;-1.60;83.30
21770;DHT22;11046;49.558;8.674;2023-02-28T05:59:57;-1.60;83.30
21770;DHT22;11046;49.558;8.674;2023-02-28T06:03:01;-1.60;83.30
21770;DHT22;11046;49.558;8.674;2023-02-28T06:06:07;-1.70;83.40
21770;DHT22;11046;49.558;8.674;2023-02-28T06:09:10;-1.70;83.30
21770;DHT22;11046;49.558;8.674;2023-02-28T06:12:15;-1.70;83.30
21770;DHT22;11046;49.558;8.674;2023-02-28T06:15:20;-1.70;83.40
21770;DHT22;11046;49.558;8.674;2023-02-28T06:18:21;-1.70;83.70
21770;DHT22;11046;49.558;8.674;2023-02-28T06:21:31;-1.70;83.80
21770;DHT22;11046;49.558;8.674;2023-02-28T06:24:34;-1.80;83.80
21770;DHT22;11046;49.558;8.674;2023-02-28T06:27:37;-1.80;83.90
21770;DHT22;11046;49.558;8.674;2023-02-28T06:30:42;-1.80;84.10
21770;DHT22;11046;49.558;8.674;2023-02-28T06:33:43;-1.70;83.90
21770;DHT22;11046;49.558;8.674;2023-02-28T06:36:53;-1.70;84.00
21770;DHT22;11046;49.558;8.674;2023-02-28T06:39:54;-1.80;84.40
21770;DHT22;11046;49.558;8.674;2023-02-28T06:43:04;-1.80;84.40
21770;DHT22;11046;49.558;8.674;2023-02-28T06:46:12;-1.70;84.40
21770;DHT22;11046;49.558;8.674;2023-02-28T06:49:16;-1.70;84.30
21770;DHT22;11046;49.558;8.674;2023-02-28T06:52:17;-1.70;84.40
21770;DHT22;11046;49.558;8.674;2023-02-28T06:55:17;-1.60;84.50
21770;DHT22;11046;49.558;8.674;2023-02-28T06:58:19;-1.60;84.60
21770;DHT22;11046;49.558;8.674;2023-02-28T07:01:28;-1.50;84.90
21770;DHT22;11046;49.558;8.674;2023-02-28T07:04:36;-1.50;85.00
21770;DHT22;11046;49.558;8.674;2023-02-28T07:07:47;-1.40;84.90
21770;DHT22;11046;49.558;8.674;2023-02-28T07:10:56;-1.40;84.70
21770;DHT22;11046;49.558;8.674;2023-02-28T07:13:57;-1.30;84.80
21770;DHT22;11046;49.558;8.674;2023-02-28T07:17:02;-1.30;85.00
21770;DHT22;11046;49.558;8.674;2023-02-28T07:20:03;-1.20;85.20
21770;DHT22;11046;49.558;8.674;2023-02-28T07:23:13;-1.20;85.30
21770;DHT22;11046;49.558;8.674;2023-02-28T07:26:16;-1.10;85.40
21770;DHT22;11046;49.558;8.674;2023-02-28T07:29:17;-1.00;86.20
21770;DHT22;11046;49.558;8.674;2023-02-28T07:32:18;-0.90;85.60
21770;DHT22;11046;49.558;8.674;2023-02-28T07:35:24;-0.80;85.90
21770;DHT22;11046;49.558;8.674;2023-02-28T07:38:25;-0.60;85.80
21770;DHT22;11046;49.558;8.674;2023-02-28T07:41:43;-0.40;85.70
21770;DHT22;11046;49.558;8.674;2023-02-28T07:44:44;-0.10;85.90
21770;DHT22;11046;49.558;8.674;2023-02-28T07:47:52;0.20;85.70
21770;DHT22;11046;49.558;8.674;2023-02-28T07:50:57;0.40;85.60
21770;DHT22;11046;49.558;8.674;2023-02-28T07:54:01;0.70;85.50
21770;DHT22;11046;49.558;8.674;2023-02-28T07:57:04;0.80;85.00
21770;DHT22;11046;49.558;8.674;2023-02-28T08:00:15;1.00;85.50
21770;DHT22;11046;49.558;8.674;2023-02-28T08:03:17;1.40;85.30
21770;DHT22;11046;49.558;8.674;2023-02-28T08:06:22;1.70;85.20
21770;DHT22;11046;49.558;8.674;2023-02-28T08:09:23;1.80;83.80
21770;DHT22;11046;49.558;8.674;2023-02-28T08:12:33;1.90;84.00
21770;DHT22;11046;49.558;8.674;2023-02-28T08:15:33;2.00;83.90
21770;DHT22;11046;49.558;8.674;2023-02-28T08:18:34;2.10;83.70
21770;DHT22;11046;49.558;8.674;2023-02-28T08:21:38;2.10;83.30
21770;DHT22;11046;49.558;8.674;2023-02-28T08:24:46;2.30;83.40
21770;DHT22;11046;49.558;8.674;2023-02-28T08:27:46;2.50;83.00
21770;DHT22;11046;49.558;8.674;2023-02-28T08:30:49;2.70;82.10
21770;DHT22;11046;49.558;8.674;2023-02-28T08:33:53;2.80;81.90
21770;DHT22;11046;49.558;8.674;2023-02-28T08:36:56;2.90;82.10
21770;DHT22;11046;49.558;8.674;2023-02-28T08:39:56;3.10;81.40
21770;DHT22;11046;49.558;8.674;2023-02-28T08:42:57;3.40;81.80
21770;DHT22;11046;49.558;8.674;2023-02-28T08:46:02;3.70;81.30
21770;DHT22;11046;49.558;8.674;2023-02-28T08:49:03;4.10;80.50
21770;DHT22;11046;49.558;8.674;2023-02-28T08:52:04;4.30;80.10
21770;DHT22;11046;49.558;8.674;2023-02-28T08:55:05;4.60;79.10
21770;DHT22;11046;49.558;8.674;2023-02-28T08:58:09;4.70;78.70
21770;DHT22;11046;49.558;8.674;2023-02-28T09:01:20;4.70;77.50
21770;DHT22;11046;49.558;8.674;2023-02-28T09:04:24;4.70;77.20
21770;DHT22;11046;49.558;8.674;2023-02-28T09:07:31;4.70;76.30
21770;DHT22;11046;49.558;8.674;2023-02-28T09:10:37;4.80;76.70
21770;DHT22;11046;49.558;8.674;2023-02-28T09:13:38;4.80;75.50
21770;DHT22;11046;49.558;8.674;2023-02-28T09:16:41;4.90;74.70
21770;DHT22;11046;49.558;8.674;2023-02-28T09:19:44;5.10;75.00
21770;DHT22;11046;49.558;8.674;2023-02-28T09:22:45;5.40;74.30
21770;DHT22;11046;49.558;8.674;2023-02-28T09:25:53;5.40;73.60
21770;DHT22;11046;49.558;8.674;2023-02-28T09:28:54;5.60;72.80
21770;DHT22;11046;49.558;8.674;2023-02-28T09:31:55;5.70;72.30
21770;DHT22;11046;49.558;8.674;2023-02-28T09:34:58;5.80;72.50
21770;DHT22;11046;49.558;8.674;2023-02-28T09:37:59;6.00;72.10
21770;DHT22;11046;49.558;8.674;2023-02-28T09:41:10;6.10;71.80
21770;DHT22;11046;49.558;8.674;2023-02-28T09:44:16;6.40;71.40
21770;DHT22;11046;49.558;8.674;2023-02-28T09:47:32;6.30;69.40
21770;DHT22;11046;49.558;8.674;2023-02-28T09:50:40;6.30;69.20
21770;DHT22;11046;49.558;8.674;2023-02-28T09:53:42;6.40;69.80
21770;DHT22;11046;49.558;8.674;2023-02-28T09:56:44;6.70;69.70
21770;DHT22;11046;49.558;8.674;2023-02-28T10:03:16;6.80;68.60
21770;DHT22;11046;49.558;8.674;2023-02-28T10:06:28;6.80;67.10
21770;DHT22;11046;49.558;8.674;2023-02-28T10:09:32;6.50;67.60
21770;DHT22;11046;49.558;8.674;2023-02-28T10:12:35;6.80;68.40
21770;DHT22;11046;49.558;8.674;2023-02-28T10:15:39;7.00;67.40
21770;DHT22;11046;49.558;8.674;2023-02-28T10:18:47;7.00;66.80
21770;DHT22;11046;49.558;8.674;2023-02-28T10:22:03;6.90;66.40
21770;DHT22;11046;49.558;8.674;2023-02-28T10:25:17;6.80;66.40
21770;DHT22;11046;49.558;8.674;2023-02-28T10:28:18;6.70;65.50
21770;DHT22;11046;49.558;8.674;2023-02-28T10:31:19;6.00;65.50
21770;DHT22;11046;49.558;8.674;2023-02-28T10:34:20;5.90;66.90
21770;DHT22;11046;49.558;8.674;2023-02-28T10:37:21;5.90;67.20
21770;DHT22;11046;49.558;8.674;2023-02-28T10:43:23;5.50;66.30
21770;DHT22;11046;49.558;8.674;2023-02-28T10:46:25;5.60;66.40
21770;DHT22;11046;49.558;8.674;2023-02-28T10:49:28;5.70;66.00
21770;DHT22;11046;49.558;8.674;2023-02-28T10:52:38;5.60;65.70
21770;DHT22;11046;49.558;8.674;2023-02-28T10:55:39;5.80;66.00
21770;DHT22;11046;49.558;8.674;2023-02-28T11:01:54;6.50;64.90
21770;DHT22;11046;49.558;8.674;2023-02-28T11:04:55;6.50;64.90
21770;DHT22;11046;49.558;8.674;2023-02-28T11:08:05;6.60;64.40
21770;DHT22;11046;49.558;8.674;2023-02-28T11:11:06;6.30;63.60
21770;DHT22;11046;49.558;8.674;2023-02-28T11:14:19;6.40;64.30
21770;DHT22;11046;49.558;8.674;2023-02-28T11:17:27;6.40;63.80
21770;DHT22;11046;49.558;8.674;2023-02-28T11:20:31;6.30;63.40
21770;DHT22;11046;49.558;8.674;2023-02-28T11:23:34;6.30;63.20
21770;DHT22;11046;49.558;8.674;2023-02-28T11:26:42;6.30;62.50
21770;DHT22;11046;49.558;8.674;2023-02-28T11:29:47;6.30;62.60
21770;DHT22;11046;49.558;8.674;2023-02-28T11:32:49;6.30;61.80
21770;DHT22;11046;49.558;8.674;2023-02-28T11:35:51;6.30;62.10
21770;DHT22;11046;49.558;8.674;2023-02-28T11:38:54;6.20;61.40
21770;DHT22;11046;49.558;8.674;2023-02-28T11:42:31;6.10;62.00
21770;DHT22;11046;49.558;8.674;2023-02-28T11:49:25;6.10;60.60
21770;DHT22;11046;49.558;8.674;2023-02-28T11:52:53;6.10;61.10
21770;DHT22;11046;49.558;8.674;2023-02-28T11:59:42;6.40;60.90
21770;DHT22;11046;49.558;8.674;2023-02-28T12:03:15;6.50;61.40
21770;DHT22;11046;49.558;8.674;2023-02-28T12:06:25;6.70;61.00
21770;DHT22;11046;49.558;8.674;2023-02-28T12:13:12;6.80;60.00
21770;DHT22;11046;49.558;8.674;2023-02-28T12:16:27;6.70;59.80
21770;DHT22;11046;49.558;8.674;2023-02-28T12:19:50;6.70;60.50
21770;DHT22;11046;49.558;8.674;2023-02-28T12:23:08;6.70;60.10
21770;DHT22;11046;49.558;8.674;2023-02-28T12:26:19;6.60;61.10
21770;DHT22;11046;49.558;8.674;2023-02-28T12:29:30;6.70;60.80
21770;DHT22;11046;49.558;8.674;2023-02-28T12:32:40;6.80;61.10
21770;DHT22;11046;49.558;8.674;2023-02-28T12:35:58;6.80;61.10
21770;DHT22;11046;49.558;8.674;2023-02-28T12:39:33;6.70;60.10
21770;DHT22;11046;49.558;8.674;2023-02-28T12:42:45;6.50;60.60
21770;DHT22;11046;49.558;8.674;2023-02-28T12:45:55;6.70;61.00
21770;DHT22;11046;49.558;8.674;2023-02-28T12:48:59;6.70;60.20
21770;DHT22;11046;49.558;8.674;2023-02-28T12:52:04;6.50;60.50
21770;DHT22;11046;49.558;8.674;2023-02-28T12:55:08;6.60;60.10
21770;DHT22;11046;49.558;8.674;2023-02-28T12:58:51;6.50;60.60
21770;DHT22;11046;49.558;8.674;2023-02-28T13:02:17;6.70;60.70
21770;DHT22;11046;49.558;8.674;2023-02-28T13:09:10;6.40;60.90
21770;DHT22;11046;49.558;8.674;2023-02-28T13:12:14;6.50;60.80
21770;DHT22;11046;49.558;8.674;2023-02-28T13:15:27;6.60;60.00
21770;DHT22;11046;49.558;8.674;2023-02-28T13:21:44;6.40;59.80
21770;DHT22;11046;49.558;8.674;2023-02-28T13:24:48;6.20;59.40
21770;DHT22;11046;49.558;8.674;2023-02-28T13:27:54;6.10;60.20
21770;DHT22;11046;49.558;8.674;2023-02-28T13:31:01;6.10;59.70
21770;DHT22;11046;49.558;8.674;2023-02-28T13:34:13;5.90;59.80
21770;DHT22;11046;49.558;8.674;2023-02-28T13:40:32;6.00;60.30
21770;DHT22;11046;49.558;8.674;2023-02-28T13:54:06;6.20;59.40
21770;DHT22;11046;49.558;8.674;2023-02-28T13:57:40;6.00;59.40
21770;DHT22;11046;49.558;8.674;2023-02-28T14:01:05;5.70;59.40
21770;DHT22;11046;49.558;8.674;2023-02-28T14:04:46;5.50;59.90
21770;DHT22;11046;49.558;8.674;2023-02-28T14:07:50;5.60;60.40
21770;DHT22;11046;49.558;8.674;2023-02-28T14:11:08;5.70;59.90
21770;DHT22;11046;49.558;8.674;2023-02-28T14:17:37;5.70;60.00
21770;DHT22;11046;49.558;8.674;2023-02-28T14:20:40;5.90;60.20
21770;DHT22;11046;49.558;8.674;2023-02-28T14:27:17;6.10;59.50
21770;DHT22;11046;49.558;8.674;2023-02-28T14:30:37;5.90;59.20
21770;DHT22;11046;49.558;8.674;2023-02-28T14:37:17;5.40;59.70
21770;DHT22;11046;49.558;8.674;2023-02-28T14:40:35;5.50;60.00
21770;DHT22;11046;49.558;8.674;2023-02-28T14:43:35;5.30;59.70
21770;DHT22;11046;49.558;8.674;2023-02-28T14:46:38;5.10;60.00
21770;DHT22;11046;49.558;8.674;2023-02-28T14:49:45;5.00;60.20
21770;DHT22;11046;49.558;8.674;2023-02-28T14:52:50;5.10;60.20
21770;DHT22;11046;49.558;8.674;2023-02-28T14:55:52;5.00;60.20
21770;DHT22;11046;49.558;8.674;2023-02-28T14:58:56;5.00;60.30
21770;DHT22;11046;49.558;8.674;2023-02-28T15:02:20;5.10;60.30
21770;DHT22;11046;49.558;8.674;2023-02-28T15:08:31;4.90;59.70
21770;DHT22;11046;49.558;8.674;2023-02-28T15:11:41;4.70;60.30
21770;DHT22;11046;49.558;8.674;2023-02-28T15:14:45;4.70;60.70
21770;DHT22;11046;49.558;8.674;2023-02-28T15:17:56;4.80;60.70
21770;DHT22;11046;49.558;8.674;2023-02-28T15:21:13;4.90;60.70
21770;DHT22;11046;49.558;8.674;2023-02-28T15:24:29;5.00;60.60
21770;DHT22;11046;49.558;8.674;2023-02-28T15:27:33;5.10;60.70
21770;DHT22;11046;49.558;8.674;2023-02-28T15:30:55;5.00;60.50
21770;DHT22;11046;49.558;8.674;2023-02-28T15:33:58;5.00;60.50
21770;DHT22;11046;49.558;8.674;2023-02-28T15:40:42;5.00;60.70
21770;DHT22;11046;49.558;8.674;2023-02-28T15:43:44;5.00;60.70
21770;DHT22;11046;49.558;8.674;2023-02-28T15:46:57;4.90;61.00
21770;DHT22;11046;49.558;8.674;2023-02-28T15:50:05;5.00;60.90
21770;DHT22;11046;49.558;8.674;2023-02-28T15:53:17;5.10;61.80
21770;DHT22;11046;49.558;8.674;2023-02-28T15:56:25;5.20;60.80
21770;DHT22;11046;49.558;8.674;2023-02-28T15:59:28;5.10;60.70
21770;DHT22;11046;49.558;8.674;2023-02-28T16:02:34;4.90;60.80
21770;DHT22;11046;49.558;8.674;2023-02-28T16:05:35;4.90;61.10
21770;DHT22;11046;49.558;8.674;2023-02-28T16:08:37;4.90;61.10
21770;DHT22;11046;49.558;8.674;2023-02-28T16:11:42;4.80;61.20
21770;DHT22;11046;49.558;8.674;2023-02-28T16:14:44;4.70;61.50
21770;DHT22;11046;49.558;8.674;2023-02-28T16:17:46;4.80;61.70
21770;DHT22;11046;49.558;8.674;2023-02-28T16:20:47;4.80;61.50
21770;DHT22;11046;49.558;8.674;2023-02-28T16:23:49;4.70;61.60
21770;DHT22;11046;49.558;8.674;2023-02-28T16:26:52;4.60;61.60
21770;DHT22;11046;49.558;8.674;2023-02-28T16:29:53;4.60;61.80
21770;DHT22;11046;49.558;8.674;2023-02-28T16:32:55;4.70;61.70
21770;DHT22;11046;49.558;8.674;2023-02-28T16:35:56;4.70;61.50
21770;DHT22;11046;49.558;8.674;2023-02-28T16:38:56;4.80;61.70
21770;DHT22;11046;49.558;8.674;2023-02-28T16:41:57;4.80;61.70
21770;DHT22;11046;49.558;8.674;2023-02-28T16:44:58;4.80;61.60
21770;DHT22;11046;49.558;8.674;2023-02-28T16:47:58;4.80;61.50
21770;DHT22;11046;49.558;8.674;2023-02-28T16:50:59;4.70;61.60
21770;DHT22;11046;49.558;8.674;2023-02-28T16:53:59;4.60;61.60
21770;DHT22;11046;49.558;8.674;2023-02-28T16:57:00;4.60;61.80
21770;DHT22;11046;49.558;8.674;2023-02-28T17:00:01;4.50;61.90
21770;DHT22;11046;49.558;8.674;2023-02-28T17:03:01;4.50;62.00
21770;DHT22;11046;49.558;8.674;2023-02-28T17:06:03;4.50;62.10
21770;DHT22;11046;49.558;8.674;2023-02-28T17:09:04;4.50;61.90
21770;DHT22;11046;49.558;8.674;2023-02-28T17:12:05;4.50;61.90
21770;DHT22;11046;49.558;8.674;2023-02-28T17:15:06;4.40;61.90
21770;DHT22;11046;49.558;8.674;2023-02-28T17:18:09;4.40;62.00
21770;DHT22;11046;49.558;8.674;2023-02-28T17:21:15;4.30;61.90
21770;DHT22;11046;49.558;8.674;2023-02-28T17:24:16;4.20;62.30
21770;DHT22;11046;49.558;8.674;2023-02-28T17:27:17;4.10;62.40
21770;DHT22;11046;49.558;8.674;2023-02-28T17:30:20;4.00;62.50
21770;DHT22;11046;49.558;8.674;2023-02-28T17:33:21;3.90;62.60
21770;DHT22;11046;49.558;8.674;2023-02-28T17:36:24;3.80;62.90
21770;DHT22;11046;49.558;8.674;2023-02-28T17:39:26;3.80;63.10
21770;DHT22;11046;49.558;8.674;2023-02-28T17:42:26;3.80;63.10
21770;DHT22;11046;49.558;8.674;2023-02-28T17:45:27;3.60;63.30
21770;DHT22;11046;49.558;8.674;2023-02-28T17:48:27;3.60;63.40
21770;DHT22;11046;49.558;8.674;2023-02-28T17:51:29;3.50;63.70
21770;DHT22;11046;49.558;8.674;2023-02-28T17:54:29;3.40;64.20
21770;DHT22;11046;49.558;8.674;2023-02-28T17:57:30;3.30;64.30
21770;DHT22;11046;49.558;8.674;2023-02-28T18:00:31;3.30;64.60
21770;DHT22;11046;49.558;8.674;2023-02-28T18:03:33;3.20;64.70
21770;DHT22;11046;49.558;8.674;2023-02-28T18:06:43;3.10;65.00
21770;DHT22;11046;49.558;8.674;2023-02-28T18:09:51;3.00;65.30
21770;DHT22;11046;49.558;8.674;2023-02-28T18:12:53;3.00;65.50
21770;DHT22;11046;49.558;8.674;2023-02-28T18:15:54;2.90;65.70
21770;DHT22;11046;49.558;8.674;2023-02-28T18:18:55;2.80;65.80
21770;DHT22;11046;49.558;8.674;2023-02-28T18:21:55;2.70;66.00
21770;DHT22;11046;49.558;8.674;2023-02-28T18:24:56;2.60;66.20
21770;DHT22;11046;49.558;8.674;2023-02-28T18:27:57;2.50;66.40
21770;DHT22;11046;49.558;8.674;2023-02-28T18:30:57;2.50;66.50
21770;DHT22;11046;49.558;8.674;2023-02-28T18:34:04;2.30;66.80
21770;DHT22;11046;49.558;8.674;2023-02-28T18:37:05;2.30;66.90
21770;DHT22;11046;49.558;8.674;2023-02-28T18:40:06;2.20;67.10
21770;DHT22;11046;49.558;8.674;2023-02-28T18:43:07;2.10;67.50
21770;DHT22;11046;49.558;8.674;2023-02-28T18:46:13;2.10;67.60
21770;DHT22;11046;49.558;8.674;2023-02-28T18:49:14;2.10;67.70
21770;DHT22;11046;49.558;8.674;2023-02-28T18:52:15;2.00;67.70
21770;DHT22;11046;49.558;8.674;2023-02-28T18:55:15;1.90;67.80
21770;DHT22;11046;49.558;8.674;2023-02-28T18:58:18;1.80;68.10
21770;DHT22;11046;49.558;8.674;2023-02-28T19:01:26;1.80;68.10
21770;DHT22;11046;49.558;8.674;2023-02-28T19:04:29;1.60;68.60
21770;DHT22;11046;49.558;8.674;2023-02-28T19:07:29;1.50;68.50
21770;DHT22;11046;49.558;8.674;2023-02-28T19:10:30;1.40;68.90
21770;DHT22;11046;49.558;8.674;2023-02-28T19:13:31;1.40;69.00
21770;DHT22;11046;49.558;8.674;2023-02-28T19:16:31;1.30;69.00
21770;DHT22;11046;49.558;8.674;2023-02-28T19:19:32;1.30;69.10
21770;DHT22;11046;49.558;8.674;2023-02-28T19:22:32;1.30;69.20
21770;DHT22;11046;49.558;8.674;2023-02-28T19:25:33;1.30;69.30
21770;DHT22;11046;49.558;8.674;2023-02-28T19:28:33;1.20;69.40
21770;DHT22;11046;49.558;8.674;2023-02-28T19:31:34;1.20;69.50
21770;DHT22;11046;49.558;8.674;2023-02-28T19:34:35;1.10;69.70
21770;DHT22;11046;49.558;8.674;2023-02-28T19:37:39;1.10;69.90
21770;DHT22;11046;49.558;8.674;2023-02-28T19:40:40;1.00;70.20
21770;DHT22;11046;49.558;8.674;2023-02-28T19:43:41;1.00;70.30
21770;DHT22;11046;49.558;8.674;2023-02-28T19:46:42;1.00;70.30
21770;DHT22;11046;49.558;8.674;2023-02-28T19:49:43;0.90;70.40
21770;DHT22;11046;49.558;8.674;2023-02-28T19:52:44;0.80;70.60
21770;DHT22;11046;49.558;8.674;2023-02-28T19:55:45;0.70;71.00
21770;DHT22;11046;49.558;8.674;2023-02-28T19:58:47;0.60;71.30
21770;DHT22;11046;49.558;8.674;2023-02-28T20:01:47;0.50;71.40
21770;DHT22;11046;49.558;8.674;2023-02-28T20:04:49;0.50;71.50
21770;DHT22;11046;49.558;8.674;2023-02-28T20:07:50;0.50;71.50
21770;DHT22;11046;49.558;8.674;2023-02-28T20:10:50;0.50;71.60
21770;DHT22;11046;49.558;8.674;2023-02-28T20:13:52;0.50;71.60
21770;DHT22;11046;49.558;8.674;2023-02-28T20:16:52;0.40;71.80
21770;DHT22;11046;49.558;8.674;2023-02-28T20:19:53;0.30;71.90
21770;DHT22;11046;49.558;8.674;2023-02-28T20:22:54;0.30;72.20
21770;DHT22;11046;49.558;8.674;2023-02-28T20:26:00;0.20;72.20
21770;DHT22;11046;49.558;8.674;2023-02-28T20:29:01;0.20;72.60
21770;DHT22;11046;49.558;8.674;2023-02-28T20:32:02;0.10;73.50
21770;DHT22;11046;49.558;8.674;2023-02-28T20:35:02;0.10;72.80
21770;DHT22;11046;49.558;8.674;2023-02-28T20:38:04;0.10;73.00
21770;DHT22;11046;49.558;8.674;2023-02-28T20:41:05;0.00;73.20
21770;DHT22;11046;49.558;8.674;2023-02-28T20:44:08;0.00;73.40
21770;DHT22;11046;49.558;8.674;2023-02-28T20:47:10;-0.10;73.70
21770;DHT22;11046;49.558;8.674;2023-02-28T20:50:11;-0.10;73.90
21770;DHT22;11046;49.558;8.674;2023-02-28T20:53:12;-0.10;73.90
21770;DHT22;11046;49.558;8.674;2023-02-28T20:56:16;-0.10;73.90
21770;DHT22;11046;49.558;8.674;2023-02-28T20:59:16;-0.20;74.00
21770;DHT22;11046;49.558;8.674;2023-02-28T21:02:18;-0.20;74.20
21770;DHT22;11046;49.558;8.674;2023-02-28T21:05:18;-0.20;74.30
21770;DHT22;11046;49.558;8.674;2023-02-28T21:08:19;-0.30;74.50
21770;DHT22;11046;49.558;8.674;2023-02-28T21:11:26;-0.20;74.70